Time;durP1;ratioP1;P1;durP2;ratioP2;P2;SDS_P1;SDS_P2;PMS_P1;PMS_P2;Temp;Humidity;BMP_temperature;BMP_pressure;BME280_temperature;BME280_humidity;BME280_pressure;Samples;Min_cycle;Max_cycle;Signal;HPM_P1;HPM_P2
2022/07/16 00:02:28;;;;;;;11.65;3.10;;;;;;;13.43;77.71;99979.00;5094115;28;20048;-77
2022/07/16 00:04:55;;;;;;;7.60;2.80;;;;;;;13.47;77.56;99976.97;5092916;28;20097;-77
2022/07/16 00:07:23;;;;;;;10.70;3.17;;;;;;;13.47;78.01;99980.56;5092895;28;20044;-78
2022/07/16 00:09:50;;;;;;;6.70;2.83;;;;;;;13.46;77.62;99975.22;5092449;28;20044;-78
2022/07/16 00:12:18;;;;;;;10.55;3.90;;;;;;;13.40;78.07;99975.59;5094553;28;20048;-77
2022/07/16 00:14:45;;;;;;;11.50;3.97;;;;;;;13.39;78.15;99979.28;5096460;28;20043;-77
2022/07/16 00:17:13;;;;;;;10.73;4.60;;;;;;;13.37;78.62;99979.38;5096642;28;20109;-77
2022/07/16 00:19:41;;;;;;;9.10;3.40;;;;;;;13.32;78.14;99978.81;5096595;28;20105;-77
2022/07/16 00:22:08;;;;;;;8.98;3.42;;;;;;;13.33;78.87;99983.25;5096175;28;20110;-77
2022/07/16 00:24:36;;;;;;;10.55;3.05;;;;;;;13.33;78.79;99984.13;5096031;28;20063;-76
2022/07/16 00:27:03;;;;;;;14.77;3.15;;;;;;;13.31;78.67;99990.63;5096344;28;20044;-75
2022/07/16 00:29:31;;;;;;;7.28;2.60;;;;;;;13.30;78.40;99987.06;5096466;28;20043;-76
2022/07/16 00:31:58;;;;;;;11.57;3.10;;;;;;;13.37;78.35;99992.06;5095774;28;20489;-78
2022/07/16 00:34:26;;;;;;;11.30;3.03;;;;;;;13.33;78.50;99984.13;5095935;28;20056;-77
2022/07/16 00:36:55;;;;;;;8.32;3.25;;;;;;;13.26;78.69;99984.63;5096098;28;20044;-77
2022/07/16 00:39:22;;;;;;;6.72;2.80;;;;;;;13.22;79.20;99983.09;5095733;28;20044;-78
2022/07/16 00:41:50;;;;;;;5.43;2.50;;;;;;;13.16;80.06;99985.25;5095918;28;20519;-77
2022/07/16 00:44:19;;;;;;;5.65;2.50;;;;;;;13.13;79.76;99984.56;5095933;28;20044;-77
2022/07/16 00:46:49;;;;;;;7.78;2.72;;;;;;;13.15;78.83;99985.31;5095415;28;20044;-74
2022/07/16 00:49:17;;;;;;;9.00;3.00;;;;;;;13.11;79.07;99983.78;5094894;28;20532;-78
2022/07/16 00:51:46;;;;;;;11.27;3.80;;;;;;;13.04;79.79;99981.47;5095478;28;20405;-77
2022/07/16 00:54:15;;;;;;;9.00;3.47;;;;;;;13.06;80.12;99985.94;5095673;28;20097;-78
2022/07/16 00:56:44;;;;;;;8.35;3.20;;;;;;;13.07;80.12;99982.25;5095719;28;20048;-78
2022/07/16 00:59:12;;;;;;;11.02;2.90;;;;;;;12.98;79.79;99979.16;5095893;28;20523;-77
2022/07/16 01:01:40;;;;;;;7.60;2.85;;;;;;;13.03;79.51;99979.75;5095658;28;20048;-77
2022/07/16 01:04:10;;;;;;;8.25;3.15;;;;;;;13.04;79.66;99970.63;5095678;28;20044;-76
2022/07/16 01:06:37;;;;;;;6.57;2.95;;;;;;;13.08;79.87;99974.03;5095179;28;20127;-75
2022/07/16 01:09:05;;;;;;;7.03;2.80;;;;;;;13.13;79.18;99973.72;5095498;28;20040;-78
2022/07/16 01:11:35;;;;;;;9.13;2.97;;;;;;;13.22;79.47;99972.25;5095643;28;20055;-77
2022/07/16 01:14:03;;;;;;;8.30;3.00;;;;;;;13.08;79.69;99973.13;5095362;28;20048;-78
2022/07/16 01:16:31;;;;;;;9.52;3.75;;;;;;;13.01;79.83;99970.84;5095432;28;20040;-76
2022/07/16 01:18:59;;;;;;;7.63;3.10;;;;;;;13.00;80.47;99974.50;5095405;28;20040;-75
2022/07/16 01:21:26;;;;;;;7.72;2.80;;;;;;;12.98;80.70;99970.16;5094970;28;20044;-78
2022/07/16 01:23:55;;;;;;;6.50;2.72;;;;;;;13.00;80.57;99969.09;5094460;28;20090;-77
2022/07/16 01:26:23;;;;;;;8.48;2.70;;;;;;;13.06;79.49;99970.53;5095128;28;20050;-77
2022/07/16 01:28:50;;;;;;;10.60;2.88;;;;;;;13.02;79.63;99960.84;5095081;28;20044;-77
2022/07/16 01:31:18;;;;;;;7.80;2.70;;;;;;;12.97;80.24;99963.88;5095089;28;20048;-78
2022/07/16 01:34:24;;;;;;;9.38;2.70;;;;;;;12.89;80.62;99966.22;5095202;28;20048;-77
2022/07/16 01:36:33;;;;;;;8.55;2.60;;;;;;;12.95;80.19;99951.38;5095385;28;20052;-77
2022/07/16 01:39:02;;;;;;;5.95;2.70;;;;;;;12.88;80.49;99967.19;5094845;28;20074;-77
2022/07/16 01:41:29;;;;;;;7.25;2.63;;;;;;;12.82;79.48;99970.25;5094819;28;20043;-77
2022/07/16 01:43:57;;;;;;;6.88;2.80;;;;;;;12.90;79.61;99967.94;5094796;28;20048;-77
2022/07/16 01:46:25;;;;;;;8.80;2.80;;;;;;;12.78;80.07;99966.00;5094881;28;20478;-79
2022/07/16 01:48:52;;;;;;;10.63;2.90;;;;;;;12.94;79.75;99960.47;5094825;28;20044;-78
2022/07/16 01:51:20;;;;;;;6.15;2.80;;;;;;;12.84;79.49;99961.06;5094036;28;20060;-77
2022/07/16 01:53:47;;;;;;;7.20;2.78;;;;;;;12.74;79.65;99963.50;5094207;28;20040;-77
2022/07/16 01:56:16;;;;;;;6.00;2.67;;;;;;;12.85;79.63;99953.78;5094243;28;20048;-73
2022/07/16 01:58:44;;;;;;;9.18;2.63;;;;;;;12.91;79.77;99958.84;5093618;28;20070;-74
2022/07/16 02:01:11;;;;;;;9.27;3.70;;;;;;;12.82;80.21;99964.84;5094553;28;20048;-74
2022/07/16 02:03:39;;;;;;;9.43;2.88;;;;;;;12.82;80.52;99962.13;5094426;28;20048;-74
2022/07/16 02:06:06;;;;;;;8.27;3.53;;;;;;;12.82;80.45;99962.13;5094047;28;20052;-74
2022/07/16 02:08:34;;;;;;;9.30;2.97;;;;;;;12.69;80.84;99954.78;5094293;28;20044;-76
2022/07/16 02:11:01;;;;;;;7.35;2.72;;;;;;;12.66;81.26;99954.97;5094305;28;20050;-77
2022/07/16 02:13:30;;;;;;;7.30;3.05;;;;;;;12.63;81.64;99949.75;5094240;28;20052;-77
2022/07/16 02:15:58;;;;;;;9.52;2.90;;;;;;;12.65;81.25;99957.81;5094131;28;20063;-77
2022/07/16 02:18:25;;;;;;;9.30;3.00;;;;;;;12.69;81.66;99951.22;5094337;28;20401;-77
2022/07/16 02:20:53;;;;;;;7.53;2.80;;;;;;;12.73;81.50;99947.34;5093954;28;20481;-78
2022/07/16 02:23:20;;;;;;;8.40;3.13;;;;;;;12.65;81.51;99946.97;5094155;28;20040;-76
2022/07/16 02:25:48;;;;;;;9.32;2.80;;;;;;;12.67;80.83;99951.31;5094201;28;20050;-78
2022/07/16 02:28:16;;;;;;;7.32;3.17;;;;;;;12.62;80.49;99948.00;5093875;28;20048;-77
2022/07/16 02:30:47;;;;;;;8.23;3.10;;;;;;;12.71;80.41;99942.00;5093969;28;20055;-77
2022/07/16 02:33:16;;;;;;;8.07;2.90;;;;;;;12.69;80.95;99943.09;5094292;28;20048;-74
2022/07/16 02:35:44;;;;;;;8.77;3.30;;;;;;;12.69;81.71;99938.53;5093884;28;20153;-75
2022/07/16 02:38:12;;;;;;;8.00;3.13;;;;;;;12.67;81.68;99937.75;5093809;28;20048;-74
2022/07/16 02:40:40;;;;;;;10.10;3.20;;;;;;;12.60;82.09;99934.56;5093569;28;20066;-77
2022/07/16 02:43:09;;;;;;;7.35;3.08;;;;;;;12.68;82.03;99936.78;5093546;28;20048;-74
2022/07/16 02:45:39;;;;;;;7.57;3.17;;;;;;;12.69;81.62;99934.97;5093816;28;20051;-75
2022/07/16 02:48:08;;;;;;;10.52;3.45;;;;;;;12.64;81.15;99932.53;5093212;28;20056;-75
2022/07/16 02:50:35;;;;;;;10.57;3.42;;;;;;;12.50;81.80;99937.97;5092957;28;20052;-77
2022/07/16 02:53:03;;;;;;;11.70;3.70;;;;;;;12.58;82.35;99935.63;5093669;28;20071;-76
2022/07/16 02:55:31;;;;;;;8.32;3.65;;;;;;;12.57;82.79;99934.75;5093329;28;20051;-78
2022/07/16 02:57:58;;;;;;;8.23;3.22;;;;;;;12.61;82.70;99932.72;5093568;28;20051;-78
2022/07/16 03:00:28;;;;;;;8.50;3.53;;;;;;;12.70;82.84;99936.69;5093118;28;20055;-78
2022/07/16 03:02:55;;;;;;;10.80;3.70;;;;;;;12.57;82.19;99928.47;5093127;28;20104;-79
2022/07/16 03:05:25;;;;;;;12.27;4.00;;;;;;;12.63;82.83;99933.50;5093366;28;20093;-79
2022/07/16 03:07:53;;;;;;;10.27;3.80;;;;;;;12.68;83.63;99934.06;5093093;28;20051;-78
2022/07/16 03:10:20;;;;;;;9.48;3.53;;;;;;;12.73;83.30;99931.94;5093376;28;20048;-76
2022/07/16 03:12:48;;;;;;;9.05;3.85;;;;;;;12.70;83.87;99929.44;5093417;28;20051;-77
2022/07/16 03:15:16;;;;;;;8.35;3.38;;;;;;;12.77;83.23;99923.59;5093226;28;20052;-78
2022/07/16 03:17:43;;;;;;;9.40;3.60;;;;;;;12.79;83.83;99927.97;5093179;28;20056;-78
2022/07/16 03:20:12;;;;;;;8.40;3.85;;;;;;;12.76;83.45;99930.88;5093084;28;20040;-78
2022/07/16 03:22:45;;;;;;;9.50;3.53;;;;;;;12.85;83.88;99929.41;5093220;28;20072;-76
2022/07/16 03:25:14;;;;;;;12.60;3.97;;;;;;;12.90;84.04;99932.72;5093985;28;20489;-78
2022/07/16 03:27:41;;;;;;;10.13;3.97;;;;;;;12.88;83.87;99929.22;5093214;28;20070;-78
2022/07/16 03:30:10;;;;;;;12.25;4.22;;;;;;;12.90;83.82;99930.00;5093018;28;20041;-78
2022/07/16 03:32:37;;;;;;;11.52;4.13;;;;;;;12.96;83.44;99932.31;5092839;28;20138;-77
2022/07/16 03:35:06;;;;;;;11.63;4.07;;;;;;;13.02;83.61;99933.72;5093258;28;20044;-74
2022/07/16 03:37:34;;;;;;;10.82;3.92;;;;;;;12.98;82.95;99937.59;5093283;28;20051;-77
2022/07/16 03:40:03;;;;;;;9.70;4.35;;;;;;;12.97;82.67;99925.91;5093019;28;20055;-78
2022/07/16 03:42:30;;;;;;;12.00;4.22;;;;;;;13.03;81.66;99933.66;5092924;28;20401;-75
2022/07/16 03:44:57;;;;;;;10.80;4.95;;;;;;;13.04;81.66;99934.50;5092799;28;20414;-76
2022/07/16 03:47:25;;;;;;;11.10;4.43;;;;;;;13.14;82.21;99927.53;5094519;28;20040;-74
2022/07/16 03:49:53;;;;;;;12.90;4.88;;;;;;;13.33;80.83;99926.28;5096859;28;20052;-74
2022/07/16 03:52:20;;;;;;;12.85;4.45;;;;;;;13.30;81.23;99931.91;5097025;28;20043;-79
2022/07/16 03:54:48;;;;;;;13.07;4.50;;;;;;;13.33;81.25;99927.19;5096932;28;20485;-78
2022/07/16 03:57:17;;;;;;;10.55;4.22;;;;;;;13.40;81.66;99929.47;5096829;28;20123;-79
2022/07/16 03:59:44;;;;;;;10.50;4.57;;;;;;;13.33;81.96;99929.88;5096492;28;20169;-78
2022/07/16 04:02:12;;;;;;;12.25;4.13;;;;;;;13.49;81.41;99931.59;5096557;28;20044;-78
2022/07/16 04:04:39;;;;;;;9.57;4.28;;;;;;;13.45;81.78;99938.19;5096518;28;20063;-77
2022/07/16 04:07:07;;;;;;;12.40;4.30;;;;;;;13.44;81.92;99923.75;5096867;28;20048;-78
2022/07/16 04:09:35;;;;;;;8.80;4.00;;;;;;;13.49;81.64;99930.75;5096542;28;20055;-78
2022/07/16 04:12:02;;;;;;;18.15;4.90;;;;;;;13.57;81.42;99929.22;5096684;28;20051;-78
2022/07/16 04:14:31;;;;;;;11.18;4.10;;;;;;;13.50;82.28;99930.63;5096056;28;20050;-76
2022/07/16 04:16:59;;;;;;;12.50;4.45;;;;;;;13.64;81.92;99939.66;5096309;28;20397;-78
2022/07/16 04:19:26;;;;;;;10.70;4.18;;;;;;;13.66;80.94;99938.59;5096561;28;20048;-78
2022/07/16 04:21:53;;;;;;;9.20;3.70;;;;;;;13.62;81.16;99932.50;5096135;28;20050;-79
2022/07/16 04:24:21;;;;;;;19.48;10.02;;;;;;;13.73;80.84;99933.63;5096423;28;20053;-78
2022/07/16 04:26:49;;;;;;;16.27;6.03;;;;;;;13.69;80.29;99941.09;5096299;28;20059;-78
2022/07/16 04:29:16;;;;;;;17.90;7.93;;;;;;;13.78;81.26;99936.91;5095969;28;20070;-78
2022/07/16 04:31:45;;;;;;;14.85;6.25;;;;;;;13.70;80.57;99936.56;5096097;28;20044;-78
2022/07/16 04:34:12;;;;;;;13.00;4.35;;;;;;;13.64;80.96;99945.09;5096459;28;20040;-79
2022/07/16 04:36:40;;;;;;;11.18;4.68;;;;;;;13.68;81.20;99933.94;5096146;28;20059;-79
2022/07/16 04:39:08;;;;;;;10.45;4.10;;;;;;;13.79;82.44;99935.94;5096159;28;20094;-79
2022/07/16 04:41:35;;;;;;;11.90;3.78;;;;;;;14.04;81.49;99931.50;5095917;28;20114;-78
2022/07/16 04:44:02;;;;;;;9.50;3.53;;;;;;;14.07;81.22;99933.16;5095535;28;20044;-76
2022/07/16 04:46:30;;;;;;;12.35;3.40;;;;;;;14.10;81.45;99931.09;5095798;28;20094;-76
2022/07/16 04:48:59;;;;;;;6.20;3.10;;;;;;;14.08;81.30;99926.75;5096111;28;20048;-79
2022/07/16 04:51:27;;;;;;;14.38;6.68;;;;;;;14.01;81.26;99934.44;5095456;28;20409;-74
2022/07/16 04:53:54;;;;;;;10.63;3.80;;;;;;;13.98;81.02;99929.22;5095925;28;20484;-74
2022/07/16 04:56:22;;;;;;;18.50;10.85;;;;;;;14.01;81.17;99931.72;5095748;28;20040;-74
2022/07/16 04:58:49;;;;;;;16.85;8.60;;;;;;;14.09;81.11;99923.94;5094203;28;20055;-75
2022/07/16 05:01:17;;;;;;;12.93;5.07;;;;;;;14.04;81.93;99934.22;5095738;28;20056;-74
2022/07/16 05:03:44;;;;;;;11.20;3.85;;;;;;;14.07;81.64;99931.28;5095629;28;20051;-74
2022/07/16 05:06:13;;;;;;;8.00;3.65;;;;;;;14.19;82.03;99937.72;5095667;28;20051;-75
2022/07/16 05:08:41;;;;;;;9.63;3.70;;;;;;;14.34;80.77;99942.09;5095480;28;20409;-75
2022/07/16 05:11:09;;;;;;;9.10;3.42;;;;;;;14.25;80.58;99933.72;5095508;28;20044;-75
2022/07/16 05:13:37;;;;;;;10.13;4.03;;;;;;;14.33;81.51;99936.75;5095210;28;20050;-74
2022/07/16 05:16:05;;;;;;;20.83;9.63;;;;;;;14.30;80.38;99934.25;5095439;28;20126;-74
2022/07/16 05:18:32;;;;;;;17.20;7.90;;;;;;;14.55;81.06;99927.09;5095418;28;20051;-74
2022/07/16 05:21:00;;;;;;;10.00;3.80;;;;;;;14.69;79.57;99932.38;5095152;28;20048;-74
2022/07/16 05:23:29;;;;;;;16.15;5.30;;;;;;;14.74;78.40;99934.81;5095282;28;20048;-74
2022/07/16 05:25:56;;;;;;;10.55;4.20;;;;;;;14.75;78.97;99936.53;5095152;28;20048;-74
2022/07/16 05:28:24;;;;;;;10.10;3.53;;;;;;;14.86;78.33;99935.75;5094880;28;20044;-74
2022/07/16 05:30:51;;;;;;;9.68;3.40;;;;;;;14.71;78.16;99933.16;5094858;28;20485;-75
2022/07/16 05:33:19;;;;;;;8.38;3.30;;;;;;;14.87;78.29;99932.03;5094945;28;20048;-74
2022/07/16 05:35:47;;;;;;;11.23;3.40;;;;;;;14.91;78.09;99931.72;5095197;28;20055;-75
2022/07/16 05:38:14;;;;;;;12.35;3.75;;;;;;;14.83;77.60;99935.97;5094810;28;20048;-74
2022/07/16 05:40:43;;;;;;;7.65;3.20;;;;;;;14.82;77.61;99926.97;5094677;28;20439;-74
2022/07/16 05:43:11;;;;;;;9.88;3.78;;;;;;;14.69;77.13;99926.94;5094281;28;20040;-75
2022/07/16 05:45:39;;;;;;;13.93;3.70;;;;;;;14.85;78.72;99934.88;5094941;28;20056;-75
2022/07/16 05:48:06;;;;;;;10.00;3.40;;;;;;;14.96;77.97;99933.22;5094999;28;20044;-74
2022/07/16 05:50:34;;;;;;;9.80;3.38;;;;;;;15.00;78.19;99935.63;5094499;28;20063;-74
2022/07/16 05:53:01;;;;;;;10.65;3.38;;;;;;;14.92;78.28;99933.44;5094654;28;20066;-74
2022/07/16 05:55:29;;;;;;;7.65;3.10;;;;;;;15.00;78.92;99922.03;5094700;28;20396;-75
2022/07/16 05:57:58;;;;;;;9.18;3.33;;;;;;;14.95;78.63;99921.50;5094031;28;20411;-75
2022/07/16 06:00:26;;;;;;;9.80;3.13;;;;;;;15.04;78.69;99912.66;5094537;28;20382;-74
2022/07/16 06:02:53;;;;;;;10.02;4.55;;;;;;;15.16;78.83;99919.03;5094650;28;20482;-75
2022/07/16 06:05:21;;;;;;;15.18;3.42;;;;;;;15.24;79.24;99920.31;5094343;28;20040;-74
2022/07/16 06:07:48;;;;;;;11.55;3.60;;;;;;;15.35;79.14;99917.66;5094376;28;20486;-75
2022/07/16 06:10:16;;;;;;;9.85;3.35;;;;;;;15.37;78.82;99932.00;5094004;28;20044;-75
2022/07/16 06:12:43;;;;;;;10.07;3.25;;;;;;;15.27;78.68;99926.38;5093855;28;20097;-75
2022/07/16 06:15:13;;;;;;;8.43;3.03;;;;;;;15.44;78.12;99924.25;5094357;28;20040;-74
2022/07/16 06:17:41;;;;;;;9.75;3.17;;;;;;;15.41;78.26;99924.50;5094092;28;20066;-74
2022/07/16 06:20:10;;;;;;;9.02;3.30;;;;;;;15.61;77.98;99917.53;5094013;28;20055;-78
2022/07/16 06:22:38;;;;;;;12.13;3.20;;;;;;;15.64;77.36;99920.88;5094085;28;20043;-79
2022/07/16 06:25:06;;;;;;;8.20;3.20;;;;;;;15.70;77.17;99926.84;5093866;28;20044;-76
2022/07/16 06:27:34;;;;;;;7.05;2.85;;;;;;;15.72;76.54;99924.88;5094000;28;20055;-76
2022/07/16 06:30:05;;;;;;;8.52;3.40;;;;;;;15.68;76.41;99923.34;5093986;28;20059;-76
2022/07/16 06:32:34;;;;;;;11.30;2.90;;;;;;;15.73;76.18;99921.19;5093855;28;20404;-75
2022/07/16 06:35:01;;;;;;;8.73;3.08;;;;;;;15.97;75.50;99913.00;5094008;28;20048;-75
2022/07/16 06:37:29;;;;;;;8.32;2.90;;;;;;;15.98;75.50;99914.72;5093806;28;20492;-76
2022/07/16 06:39:56;;;;;;;9.07;3.05;;;;;;;16.00;74.84;99922.75;5093420;28;20044;-75
2022/07/16 06:42:24;;;;;;;9.73;3.30;;;;;;;16.10;75.05;99925.66;5093794;28;20044;-75
2022/07/16 06:44:52;;;;;;;10.27;3.40;;;;;;;16.08;74.07;99917.56;5093715;28;20447;-79
2022/07/16 06:47:19;;;;;;;5.18;2.65;;;;;;;16.22;74.20;99913.78;5093563;28;20048;-76
2022/07/16 06:49:48;;;;;;;11.43;3.08;;;;;;;16.15;73.76;99909.81;5093401;28;20060;-73
2022/07/16 06:52:16;;;;;;;7.40;3.10;;;;;;;16.18;73.26;99915.88;5093837;28;20070;-73
2022/07/16 06:54:43;;;;;;;7.45;2.83;;;;;;;16.24;72.70;99914.50;5093222;28;20493;-73
2022/07/16 06:57:11;;;;;;;12.30;3.30;;;;;;;16.21;71.89;99914.75;5093366;28;20063;-74
2022/07/16 06:59:38;;;;;;;8.30;3.17;;;;;;;16.22;71.91;99905.59;5100603;28;20052;-73
2022/07/16 07:02:06;;;;;;;8.35;3.08;;;;;;;16.32;72.97;99913.91;5101686;28;20500;-73
2022/07/16 07:04:33;;;;;;;9.23;2.88;;;;;;;16.41;72.56;99896.81;5101862;28;20039;-74
2022/07/16 07:07:03;;;;;;;11.50;3.42;;;;;;;16.39;71.14;99900.69;5103536;28;20392;-74
2022/07/16 07:09:30;;;;;;;11.57;2.72;;;;;;;16.49;71.55;99897.06;5102455;28;20036;-73
2022/07/16 07:11:58;;;;;;;7.85;2.78;;;;;;;16.60;72.43;99904.38;5101227;28;20408;-73
2022/07/16 07:14:25;;;;;;;6.50;2.80;;;;;;;16.69;71.11;99900.06;5099113;28;20128;-76
2022/07/16 07:16:53;;;;;;;7.65;2.70;;;;;;;16.65;70.16;99901.31;5102096;27;20043;-73
2022/07/16 07:19:20;;;;;;;11.10;2.72;;;;;;;16.70;70.14;99903.63;5103138;28;20055;-75
2022/07/16 07:21:48;;;;;;;9.32;2.72;;;;;;;16.76;70.70;99905.88;5101013;28;20040;-74
2022/07/16 07:24:17;;;;;;;7.65;2.70;;;;;;;16.87;70.57;99907.72;5101489;28;20073;-74
2022/07/16 07:26:44;;;;;;;9.27;2.80;;;;;;;16.87;70.56;99905.00;5101219;28;20041;-74
2022/07/16 07:29:12;;;;;;;8.45;2.83;;;;;;;17.00;69.75;99902.16;5101124;28;20431;-75
2022/07/16 07:31:39;;;;;;;9.00;2.50;;;;;;;17.08;69.29;99903.28;5101157;28;20044;-76
2022/07/16 07:34:07;;;;;;;9.05;2.80;;;;;;;17.20;69.16;99908.69;5105556;28;20519;-76
2022/07/16 07:36:35;;;;;;;6.85;2.40;;;;;;;17.24;69.84;99896.53;5101609;28;20044;-82
2022/07/16 07:39:02;;;;;;;18.73;8.52;;;;;;;17.21;68.75;99900.38;5101899;28;20047;-80
2022/07/16 07:41:31;;;;;;;22.70;12.38;;;;;;;17.25;68.08;99892.78;5097431;28;20500;-88
2022/07/16 07:43:58;;;;;;;15.38;6.55;;;;;;;17.27;68.15;99890.81;5093269;28;20044;-76
2022/07/16 07:46:26;;;;;;;11.45;4.03;;;;;;;17.32;66.30;99894.00;5089024;28;20051;-74
2022/07/16 07:48:54;;;;;;;6.97;2.22;;;;;;;17.29;64.75;99891.53;5089937;28;20048;-74
2022/07/16 07:51:22;;;;;;;6.63;2.13;;;;;;;17.28;65.30;99888.97;5097213;28;20104;-78
2022/07/16 07:53:49;;;;;;;5.95;2.38;;;;;;;17.38;65.62;99882.59;5090826;28;20127;-76
2022/07/16 07:56:17;;;;;;;6.63;2.10;;;;;;;17.36;65.79;99886.44;5089701;28;20047;-77
2022/07/16 07:58:46;;;;;;;6.03;2.28;;;;;;;17.35;65.79;99881.97;5088532;28;20105;-74
2022/07/16 08:01:13;;;;;;;6.95;2.13;;;;;;;17.38;65.22;99882.59;5089231;28;20043;-85
2022/07/16 08:03:41;;;;;;;4.82;2.03;;;;;;;17.44;65.71;99888.53;5090182;28;20044;-83
2022/07/16 08:06:08;;;;;;;8.05;2.28;;;;;;;17.41;64.16;99880.59;5090105;28;20048;-75
2022/07/16 08:08:36;;;;;;;5.10;2.10;;;;;;;17.36;61.81;99889.16;5089653;28;20416;-74
2022/07/16 08:11:03;;;;;;;7.85;2.20;;;;;;;17.38;62.40;99881.72;5090518;28;20071;-81
2022/07/16 08:13:31;;;;;;;9.50;2.40;;;;;;;17.41;63.11;99886.06;5089368;28;20509;-81
2022/07/16 08:16:00;;;;;;;8.15;2.17;;;;;;;17.27;63.89;99885.34;5089419;28;20051;-77
2022/07/16 08:18:27;;;;;;;7.78;2.20;;;;;;;17.49;63.20;99889.84;5088360;28;20058;-81
2022/07/16 08:20:55;;;;;;;7.05;2.38;;;;;;;17.45;64.10;99888.38;5089102;28;20044;-79
2022/07/16 08:26:04;;;;;;;7.20;2.15;;;;;;;17.44;63.93;99892.13;5089086;28;20449;-81
2022/07/16 08:28:31;;;;;;;6.95;2.13;;;;;;;17.46;61.78;99890.13;5089033;28;20048;-77
2022/07/16 08:31:00;;;;;;;5.68;1.90;;;;;;;17.57;62.43;99891.09;5088989;28;20492;-83
2022/07/16 08:33:28;;;;;;;7.45;2.28;;;;;;;17.62;61.63;99886.94;5094292;28;20044;-77
2022/07/16 08:35:56;;;;;;;7.43;2.47;;;;;;;17.72;61.43;99880.69;5112758;28;20047;-77
2022/07/16 08:38:23;;;;;;;11.77;4.75;;;;;;;17.73;61.06;99879.69;5112776;28;20047;-75
2022/07/16 08:40:51;;;;;;;12.07;4.00;;;;;;;17.77;61.26;99882.03;5110946;28;20446;-77
2022/07/16 08:43:19;;;;;;;9.43;2.10;;;;;;;17.87;60.58;99886.72;5092462;28;20040;-77
2022/07/16 08:45:47;;;;;;;4.28;1.75;;;;;;;17.87;59.76;99882.13;5092663;28;20058;-78
2022/07/16 08:48:16;;;;;;;6.57;1.70;;;;;;;17.89;59.50;99877.41;5092725;28;20127;-76
2022/07/16 08:50:45;;;;;;;5.68;1.90;;;;;;;17.80;60.64;99878.19;5091241;28;20059;-77
2022/07/16 08:53:13;;;;;;;10.65;3.05;;;;;;;17.77;60.95;99876.59;5092280;28;20052;-75
2022/07/16 08:55:41;;;;;;;5.50;2.00;;;;;;;17.84;60.78;99876.94;5092397;28;20048;-76
2022/07/16 08:58:09;;;;;;;7.78;2.08;;;;;;;17.89;60.42;99882.84;5092356;28;20078;-79
2022/07/16 09:00:37;;;;;;;4.32;1.85;;;;;;;17.80;60.47;99875.47;5090994;28;20051;-79
2022/07/16 09:03:05;;;;;;;10.18;3.35;;;;;;;17.89;60.47;99882.84;5103240;28;20461;-80
2022/07/16 09:05:34;;;;;;;18.02;6.70;;;;;;;17.88;59.91;99877.50;5103743;28;20123;-78
2022/07/16 09:08:01;;;;;;;8.63;2.90;;;;;;;17.93;60.25;99884.31;5104267;28;20059;-80
2022/07/16 09:10:35;;;;;;;13.05;3.85;;;;;;;17.91;60.42;99882.72;5105771;27;20056;-83
2022/07/16 09:13:03;;;;;;;6.22;1.90;;;;;;;18.03;60.03;99878.97;5109479;28;20046;-80
2022/07/16 09:15:32;;;;;;;12.02;3.20;;;;;;;17.96;60.48;99878.59;5104424;28;20401;-80
2022/07/16 09:18:15;;;;;;;23.98;7.72;;;;;;;18.05;60.34;99873.34;5103714;28;20047;-82
2022/07/16 09:20:46;;;;;;;9.35;3.25;;;;;;;18.00;60.00;99876.47;5105334;28;20084;-80
2022/07/16 09:23:26;;;;;;;8.82;2.30;;;;;;;17.95;59.58;99874.13;5104964;28;20417;-82
2022/07/16 09:25:54;;;;;;;10.60;3.38;;;;;;;17.99;59.15;99879.31;5101862;28;20036;-77
2022/07/16 09:28:23;;;;;;;7.15;2.42;;;;;;;18.07;59.15;99879.53;5095115;28;20048;-76
2022/07/16 09:30:50;;;;;;;10.00;2.63;;;;;;;17.99;59.05;99877.47;5102150;28;20051;-73
2022/07/16 09:33:22;;;;;;;9.25;2.90;;;;;;;18.02;59.29;99870.88;5104688;27;20040;-72
2022/07/16 09:36:08;;;;;;;7.00;2.10;;;;;;;18.04;59.06;99874.34;5103171;28;20043;-73
2022/07/16 09:38:51;;;;;;;8.80;2.38;;;;;;;18.08;59.22;99876.69;5106493;28;20062;-75
2022/07/16 09:41:19;;;;;;;6.57;2.08;;;;;;;18.29;56.51;99878.50;5099292;28;20044;-74
2022/07/16 09:43:47;;;;;;;7.47;1.83;;;;;;;18.35;54.36;99874.38;5102752;28;20043;-73
2022/07/16 09:46:18;;;;;;;6.55;1.70;;;;;;;18.21;54.88;99875.59;5105435;28;20108;-74
2022/07/16 09:48:46;;;;;;;6.20;1.70;;;;;;;18.23;55.25;99882.69;5105421;28;20040;-72
2022/07/16 09:51:17;;;;;;;10.05;1.90;;;;;;;18.27;54.74;99869.59;5103988;28;20056;-74
2022/07/16 09:53:46;;;;;;;6.30;1.60;;;;;;;18.23;54.52;99871.75;5105212;28;20524;-74
2022/07/16 09:56:16;;;;;;;5.65;1.83;;;;;;;18.32;55.07;99867.31;5110704;28;20108;-73
2022/07/16 09:58:47;;;;;;;5.50;1.75;;;;;;;18.38;55.00;99869.53;5113845;28;20074;-73
2022/07/16 10:01:16;;;;;;;7.00;1.80;;;;;;;18.43;54.77;99868.25;5102416;28;20043;-73
2022/07/16 10:03:45;;;;;;;4.68;1.80;;;;;;;18.51;54.69;99861.06;5093139;28;20044;-73
2022/07/16 10:06:12;;;;;;;4.65;1.70;;;;;;;18.70;52.85;99864.00;5093650;28;20533;-75
2022/07/16 10:08:43;;;;;;;3.97;1.60;;;;;;;18.76;50.91;99866.19;5093589;28;20067;-73
2022/07/16 10:11:11;;;;;;;6.80;1.90;;;;;;;18.67;51.82;99862.44;5094839;28;20052;-75
2022/07/16 10:13:42;;;;;;;7.45;2.42;;;;;;;18.66;51.72;99860.72;5093471;28;20447;-75
2022/07/16 10:16:10;;;;;;;5.93;2.28;;;;;;;18.70;51.87;99859.44;5093271;28;20048;-73
2022/07/16 10:18:40;;;;;;;8.82;2.50;;;;;;;18.70;51.07;99853.97;5092903;28;20051;-72
2022/07/16 10:21:11;;;;;;;7.72;2.92;;;;;;;18.79;51.79;99853.13;5094294;28;20040;-72
2022/07/16 10:23:42;;;;;;;9.00;2.00;;;;;;;18.98;51.15;99839.66;5107517;28;20051;-75
2022/07/16 10:26:11;;;;;;;5.55;1.80;;;;;;;19.06;51.13;99851.63;5113881;28;20104;-73
2022/07/16 10:28:41;;;;;;;4.38;1.50;;;;;;;18.98;50.77;99848.75;5113366;28;20040;-74
2022/07/16 10:31:31;;;;;;;6.68;2.30;;;;;;;18.90;51.68;99849.41;5112347;28;20058;-73
2022/07/16 10:34:39;;;;;;;4.50;1.77;;;;;;;18.90;52.05;99854.00;5106899;28;20534;-75
2022/07/16 10:37:13;;;;;;;3.78;1.60;;;;;;;18.98;52.36;99846.00;5091274;28;20085;-73
2022/07/16 10:40:02;;;;;;;5.00;1.75;;;;;;;19.15;50.76;99844.41;5090942;28;20056;-72
2022/07/16 10:42:30;;;;;;;4.30;1.50;;;;;;;19.18;50.21;99854.22;5089834;28;20052;-73
2022/07/16 10:44:57;;;;;;;5.72;1.42;;;;;;;19.14;50.47;99847.31;5091818;28;20048;-72
2022/07/16 10:47:47;;;;;;;7.05;1.67;;;;;;;19.17;50.50;99849.78;5096144;28;20047;-76
2022/07/16 10:50:23;;;;;;;6.47;1.80;;;;;;;19.11;50.02;99859.41;5099104;28;20076;-72
2022/07/16 10:52:52;;;;;;;4.68;1.60;;;;;;;19.10;50.23;99844.88;5102702;28;20036;-76
2022/07/16 10:55:34;;;;;;;10.65;1.83;;;;;;;19.08;49.97;99840.53;5102750;28;20050;-76
2022/07/16 10:58:03;;;;;;;8.02;1.77;;;;;;;19.15;49.79;99843.56;5110739;28;20039;-73
2022/07/16 11:00:31;;;;;;;5.43;1.70;;;;;;;19.16;50.85;99839.81;5111541;28;20047;-72
2022/07/16 11:03:00;;;;;;;4.25;1.73;;;;;;;19.07;49.90;99836.94;5093787;28;20112;-75
2022/07/16 11:05:31;;;;;;;5.07;1.70;;;;;;;19.11;49.53;99842.97;5093749;28;20063;-72
2022/07/16 11:08:10;;;;;;;4.38;1.50;;;;;;;19.19;49.15;99837.69;5094428;28;20054;-72
2022/07/16 11:10:41;;;;;;;6.10;2.20;;;;;;;19.22;49.06;99833.78;5093575;28;20093;-76
2022/07/16 11:13:14;;;;;;;4.90;1.70;;;;;;;19.23;49.64;99827.28;5095001;28;20134;-72
2022/07/16 11:15:41;;;;;;;12.48;2.08;;;;;;;19.25;50.34;99825.28;5092951;28;20044;-76
2022/07/16 11:18:15;;;;;;;6.95;1.60;;;;;;;19.25;50.55;99825.28;5093491;28;20048;-72
2022/07/16 11:20:44;;;;;;;6.10;1.65;;;;;;;19.16;48.75;99826.13;5091747;28;20569;-75
2022/07/16 11:23:12;;;;;;;4.32;1.60;;;;;;;19.10;49.18;99814.75;5089743;28;20048;-74
2022/07/16 11:26:01;;;;;;;5.00;1.65;;;;;;;19.23;49.29;99803.53;5089490;28;20690;-74
2022/07/16 11:28:29;;;;;;;4.65;1.58;;;;;;;19.36;49.48;99814.16;5091139;28;20048;-81
2022/07/16 11:31:04;;;;;;;5.28;1.60;;;;;;;19.45;48.21;99806.13;5090078;28;20071;-81
2022/07/16 11:33:33;;;;;;;6.07;1.70;;;;;;;19.40;48.20;99799.22;5090384;28;20051;-73
2022/07/16 11:36:13;;;;;;;4.65;1.60;;;;;;;19.54;47.62;99805.25;5090043;28;20048;-75
2022/07/16 11:38:43;;;;;;;4.53;1.63;;;;;;;19.64;48.74;99799.75;5090170;28;20471;-75
2022/07/16 11:41:12;;;;;;;6.38;1.50;;;;;;;19.62;48.90;99801.78;5090099;28;20417;-75
2022/07/16 11:43:39;;;;;;;8.32;1.95;;;;;;;19.60;48.95;99799.19;5090128;28;20093;-75